Time;durP1;ratioP1;P1;durP2;ratioP2;P2;SDS_P1;SDS_P2;PMS_P1;PMS_P2;Temp;Humidity;BMP_temperature;BMP_pressure;BME280_temperature;BME280_humidity;BME280_pressure;Samples;Min_cycle;Max_cycle;Signal;HPM_P1;HPM_P2
2022/09/26 00:02:29;;;;;;;1.20;0.40;;;11.70;99.90;;;;;;5047637;28;20529;-52
2022/09/26 00:04:56;;;;;;;1.80;0.60;;;11.60;99.90;;;;;;5047281;28;20877;-53
2022/09/26 00:07:22;;;;;;;1.00;0.50;;;11.30;99.90;;;;;;5047676;28;20892;-54
2022/09/26 00:09:49;;;;;;;1.30;0.67;;;11.50;99.90;;;;;;5047571;28;20523;-52
2022/09/26 00:12:16;;;;;;;1.27;0.60;;;11.70;99.90;;;;;;5047570;28;20476;-52
2022/09/26 00:14:43;;;;;;;1.07;0.67;;;11.90;99.90;;;;;;5047140;28;20531;-52
2022/09/26 00:17:10;;;;;;;1.13;0.60;;;12.00;99.90;;;;;;5047484;28;20895;-52
2022/09/26 00:19:38;;;;;;;1.03;0.60;;;11.70;99.90;;;;;;5047655;28;20779;-52
2022/09/26 00:22:05;;;;;;;1.00;0.50;;;11.80;99.90;;;;;;5047466;28;20614;-55
2022/09/26 00:24:32;;;;;;;1.20;0.47;;;11.90;99.90;;;;;;5046599;28;20531;-52
2022/09/26 00:26:59;;;;;;;1.00;0.40;;;11.90;99.90;;;;;;5047233;28;20496;-52
2022/09/26 00:29:26;;;;;;;1.23;0.53;;;11.90;99.90;;;;;;5047349;28;20904;-53
2022/09/26 00:31:53;;;;;;;1.20;0.50;;;11.90;99.90;;;;;;5047365;28;20486;-52
2022/09/26 00:34:20;;;;;;;1.00;0.57;;;12.00;99.90;;;;;;5046802;28;20483;-52
2022/09/26 00:36:48;;;;;;;2.53;0.70;;;12.00;99.90;;;;;;5047186;28;20552;-52
2022/09/26 00:39:16;;;;;;;1.00;0.50;;;11.90;99.90;;;;;;5047522;28;20475;-52
2022/09/26 00:41:43;;;;;;;1.00;0.60;;;11.90;99.90;;;;;;5046966;28;20492;-53
2022/09/26 00:44:39;;;;;;;1.73;1.40;;;11.90;99.90;;;;;;5049298;28;20474;-52
2022/09/26 00:47:14;;;;;;;1.67;0.77;;;11.70;99.90;;;;;;5050636;28;20516;-52
2022/09/26 00:49:44;;;;;;;1.40;0.60;;;11.70;99.90;;;;;;5050510;28;20505;-52
2022/09/26 00:52:16;;;;;;;1.67;0.77;;;11.70;99.90;;;;;;5050812;28;20459;-54
2022/09/26 00:54:46;;;;;;;1.80;0.60;;;11.70;99.90;;;;;;5050482;28;20475;-52
2022/09/26 00:57:17;;;;;;;3.67;0.90;;;11.70;99.90;;;;;;5050402;28;20534;-52
2022/09/26 00:59:49;;;;;;;1.37;0.70;;;11.80;99.90;;;;;;5050395;28;20449;-52
2022/09/26 01:02:16;;;;;;;1.17;0.60;;;11.80;99.90;;;;;;5050378;28;20455;-52
2022/09/26 01:04:45;;;;;;;1.37;0.70;;;11.70;99.90;;;;;;5050091;28;20955;-52
2022/09/26 01:07:19;;;;;;;1.23;0.70;;;11.70;99.90;;;;;;5050388;28;20527;-52
2022/09/26 01:09:47;;;;;;;1.60;0.50;;;11.40;99.90;;;;;;5050840;28;20477;-52
2022/09/26 01:12:15;;;;;;;1.10;0.50;;;11.20;99.90;;;;;;5050234;28;20447;-52
2022/09/26 01:14:43;;;;;;;0.90;0.57;;;11.10;99.90;;;;;;5049718;28;21025;-52
2022/09/26 01:17:11;;;;;;;1.57;0.50;;;11.30;99.90;;;;;;5050268;28;20467;-52
2022/09/26 01:19:49;;;;;;;1.67;0.50;;;11.40;99.90;;;;;;5050200;28;20449;-53
2022/09/26 01:22:41;;;;;;;2.90;0.70;;;11.30;99.90;;;;;;5050175;28;20502;-52
2022/09/26 01:25:20;;;;;;;1.33;0.70;;;10.90;99.90;;;;;;5049231;28;20869;-52
2022/09/26 01:28:13;;;;;;;1.00;0.50;;;10.90;99.90;;;;;;5049981;28;20557;-52
2022/09/26 01:30:48;;;;;;;1.00;0.50;;;11.20;99.90;;;;;;5041678;28;20866;-52
2022/09/26 01:33:50;;;;;;;0.80;0.40;;;11.40;99.90;;;;;;5049865;28;20473;-52
2022/09/26 01:36:46;;;;;;;0.90;0.40;;;11.60;99.90;;;;;;5049783;28;20449;-52
2022/09/26 01:39:29;;;;;;;1.03;0.50;;;11.40;99.90;;;;;;5049830;28;20517;-52
2022/09/26 01:42:05;;;;;;;0.90;0.40;;;11.30;99.90;;;;;;5049746;28;20530;-52
2022/09/26 01:44:39;;;;;;;1.00;0.50;;;11.40;99.90;;;;;;5049548;28;20471;-52
2022/09/26 01:49:43;;;;;;;0.93;0.40;;;11.30;99.90;;;;;;5071514;28;20545;-52
2022/09/26 01:52:16;;;;;;;0.90;0.40;;;11.40;99.90;;;;;;5073182;28;20432;-51
2022/09/26 01:54:46;;;;;;;1.37;0.73;;;11.30;99.90;;;;;;5072600;28;20438;-52
2022/09/26 01:57:19;;;;;;;1.07;0.50;;;11.40;99.90;;;;;;5072890;28;20793;-52
2022/09/26 01:59:52;;;;;;;1.53;0.63;;;11.40;99.90;;;;;;5072395;28;20518;-52
2022/09/26 02:02:25;;;;;;;1.23;0.47;;;11.50;99.90;;;;;;5072421;28;20855;-52
2022/09/26 02:05:00;;;;;;;1.00;0.50;;;11.50;99.90;;;;;;5072400;28;20881;-52
2022/09/26 02:07:36;;;;;;;0.90;0.40;;;11.50;99.90;;;;;;5072833;28;20547;-52
2022/09/26 02:10:12;;;;;;;0.97;0.53;;;11.60;99.90;;;;;;5072697;28;20484;-52
2022/09/26 02:12:41;;;;;;;1.93;0.40;;;11.50;99.90;;;;;;5072334;28;20528;-53
2022/09/26 02:15:12;;;;;;;1.00;0.50;;;11.50;99.90;;;;;;5072005;28;20480;-52
2022/09/26 02:17:42;;;;;;;1.30;0.50;;;11.40;99.90;;;;;;5072570;28;20932;-52
2022/09/26 02:20:15;;;;;;;2.20;0.60;;;11.40;99.90;;;;;;5072322;28;20477;-52
2022/09/26 02:22:42;;;;;;;1.00;0.47;;;11.40;99.90;;;;;;5072356;28;20488;-52
2022/09/26 02:25:10;;;;;;;1.00;0.50;;;11.30;99.90;;;;;;5071408;28;20440;-52
2022/09/26 02:27:38;;;;;;;1.30;0.50;;;11.30;99.90;;;;;;5072082;28;20466;-51
2022/09/26 02:30:06;;;;;;;1.00;0.60;;;11.10;99.90;;;;;;5072117;28;20499;-51
2022/09/26 02:32:34;;;;;;;0.90;0.40;;;11.10;99.90;;;;;;5072281;28;20437;-52
2022/09/26 02:35:52;;;;;;;0.87;0.40;;;11.20;99.90;;;;;;5071995;28;20445;-52
2022/09/26 02:37:50;;;;;;;0.90;0.43;;;11.30;99.90;;;;;;5071641;28;20477;-52
2022/09/26 02:40:19;;;;;;;0.90;0.50;;;11.30;99.90;;;;;;5072057;28;20869;-52
2022/09/26 02:42:53;;;;;;;1.63;0.47;;;11.30;99.90;;;;;;5071925;28;20446;-52
2022/09/26 02:45:29;;;;;;;1.10;0.50;;;11.30;99.90;;;;;;5071897;28;20502;-53
2022/09/26 02:48:24;;;;;;;1.40;0.43;;;11.30;99.90;;;;;;5038435;28;20509;-52
2022/09/26 02:51:01;;;;;;;0.90;0.50;;;11.20;99.90;;;;;;4972989;28;20488;-52
2022/09/26 02:53:48;;;;;;;0.93;0.43;;;11.20;99.90;;;;;;4970279;28;20458;-52
2022/09/26 02:56:28;;;;;;;1.53;0.40;;;11.20;99.90;;;;;;4970255;28;20441;-52
2022/09/26 02:59:00;;;;;;;1.00;0.63;;;11.20;99.90;;;;;;4969208;28;20520;-53
2022/09/26 03:01:33;;;;;;;0.90;0.50;;;11.20;99.90;;;;;;4970165;28;20528;-52
2022/09/26 03:04:04;;;;;;;1.10;0.60;;;11.30;99.90;;;;;;4969804;28;20506;-53
2022/09/26 03:06:37;;;;;;;1.10;0.60;;;11.30;99.90;;;;;;4969410;28;20537;-52
2022/09/26 03:09:07;;;;;;;1.00;0.30;;;11.00;99.90;;;;;;4970019;28;20467;-52
2022/09/26 03:11:35;;;;;;;1.13;0.40;;;11.10;99.90;;;;;;4970057;28;20480;-53
2022/09/26 03:14:04;;;;;;;1.20;0.50;;;11.00;99.90;;;;;;4969599;28;20450;-52
2022/09/26 03:16:35;;;;;;;1.00;0.40;;;11.00;99.90;;;;;;4969938;28;20571;-53
2022/09/26 03:19:06;;;;;;;0.90;0.40;;;11.00;99.90;;;;;;4969607;28;20487;-52
2022/09/26 03:21:34;;;;;;;0.90;0.60;;;10.90;99.90;;;;;;4969568;28;21012;-52
2022/09/26 03:24:01;;;;;;;1.13;0.70;;;10.90;99.90;;;;;;4969547;28;20727;-52
2022/09/26 03:26:31;;;;;;;1.00;0.60;;;10.70;99.90;;;;;;4969688;28;20485;-52
2022/09/26 03:28:57;;;;;;;1.37;0.60;;;10.70;99.90;;;;;;4969314;28;20520;-52
2022/09/26 03:31:24;;;;;;;1.10;0.60;;;10.90;99.90;;;;;;4969611;28;20484;-52
2022/09/26 03:33:51;;;;;;;1.23;0.37;;;11.00;99.90;;;;;;4969346;28;20511;-52
2022/09/26 03:36:21;;;;;;;1.00;0.40;;;11.00;99.90;;;;;;4969388;28;20446;-52
2022/09/26 03:38:48;;;;;;;1.13;0.53;;;10.90;99.90;;;;;;4969410;28;20521;-52
2022/09/26 03:41:15;;;;;;;1.10;0.50;;;11.00;99.90;;;;;;4969505;28;20521;-52
2022/09/26 03:43:43;;;;;;;1.57;0.77;;;11.00;99.90;;;;;;4969449;28;20814;-52
2022/09/26 03:46:11;;;;;;;1.03;0.70;;;11.10;99.90;;;;;;4969165;28;20437;-52
2022/09/26 03:48:39;;;;;;;2.30;0.73;;;11.10;99.90;;;;;;4969138;28;20474;-52
2022/09/26 03:51:09;;;;;;;1.20;0.70;;;11.00;99.90;;;;;;4969434;28;20449;-52
2022/09/26 03:53:37;;;;;;;0.90;0.50;;;10.70;99.90;;;;;;4969091;28;20442;-52
2022/09/26 03:56:06;;;;;;;1.10;0.60;;;10.50;99.90;;;;;;4969351;28;20860;-52
2022/09/26 03:58:34;;;;;;;2.17;0.47;;;10.50;99.90;;;;;;4968800;28;20940;-53
2022/09/26 04:01:06;;;;;;;1.30;0.63;;;10.60;99.90;;;;;;4969157;28;20476;-52
2022/09/26 04:03:35;;;;;;;2.60;0.80;;;10.70;99.90;;;;;;4969030;28;20456;-51
2022/09/26 04:06:02;;;;;;;2.30;0.73;;;10.80;99.90;;;;;;4969002;28;20541;-53
2022/09/26 04:08:30;;;;;;;0.97;0.60;;;10.90;99.90;;;;;;4968774;28;20470;-52
2022/09/26 04:11:01;;;;;;;1.27;0.60;;;10.90;99.90;;;;;;4969055;28;20540;-52
2022/09/26 04:13:28;;;;;;;1.30;0.70;;;10.90;99.90;;;;;;4969121;28;20447;-52
2022/09/26 04:15:56;;;;;;;2.70;0.70;;;11.00;99.90;;;;;;4969230;28;21043;-52
2022/09/26 04:18:24;;;;;;;2.40;0.50;;;11.10;99.90;;;;;;4969929;28;20482;-52
2022/09/26 04:20:57;;;;;;;1.30;0.80;;;11.10;99.90;;;;;;4972172;28;20485;-52
2022/09/26 04:23:24;;;;;;;1.37;0.90;;;11.10;99.90;;;;;;4972532;28;20539;-52
2022/09/26 04:25:51;;;;;;;1.00;0.60;;;11.00;99.90;;;;;;4971853;28;20834;-52
2022/09/26 04:28:18;;;;;;;1.00;0.50;;;11.00;99.90;;;;;;4972389;28;20505;-52
2022/09/26 04:30:45;;;;;;;1.00;0.60;;;11.10;99.90;;;;;;4972242;28;20533;-53
2022/09/26 04:33:12;;;;;;;1.20;0.67;;;11.00;99.90;;;;;;4971954;28;20532;-52
2022/09/26 04:35:40;;;;;;;2.80;0.80;;;10.90;99.90;;;;;;4972554;28;20445;-52
2022/09/26 04:38:07;;;;;;;1.17;0.77;;;10.90;99.90;;;;;;4971835;28;21047;-52
2022/09/26 04:40:34;;;;;;;1.00;0.57;;;11.00;99.90;;;;;;4972123;28;20466;-52
2022/09/26 04:43:01;;;;;;;1.87;0.57;;;11.20;99.90;;;;;;4971763;28;20450;-52
2022/09/26 04:45:28;;;;;;;1.77;1.10;;;11.20;99.90;;;;;;4971927;28;20537;-53
2022/09/26 04:47:55;;;;;;;1.40;0.87;;;11.10;99.90;;;;;;4972005;28;20562;-52
2022/09/26 04:50:23;;;;;;;6.57;4.60;;;11.00;99.90;;;;;;4971764;28;20512;-53
2022/09/26 04:52:51;;;;;;;4.53;3.70;;;11.20;99.90;;;;;;4972016;28;20453;-52
2022/09/26 04:55:18;;;;;;;34.23;23.23;;;11.20;99.90;;;;;;4971834;28;20542;-52
2022/09/26 04:57:45;;;;;;;8.83;6.57;;;11.30;99.90;;;;;;4971937;28;20469;-52
2022/09/26 05:00:13;;;;;;;2.90;2.60;;;11.10;99.90;;;;;;4971444;28;20517;-52
2022/09/26 05:02:41;;;;;;;1.43;1.20;;;11.00;99.90;;;;;;4972001;28;20532;-50
2022/09/26 05:05:09;;;;;;;1.20;0.80;;;10.80;99.90;;;;;;4971922;28;20514;-51
2022/09/26 05:07:40;;;;;;;2.23;1.50;;;10.70;99.90;;;;;;4971677;28;20470;-51
2022/09/26 05:10:10;;;;;;;1.27;0.90;;;10.70;99.90;;;;;;4972167;28;20477;-51
2022/09/26 05:12:38;;;;;;;1.80;1.30;;;10.70;99.90;;;;;;4971935;28;20823;-51
2022/09/26 05:15:07;;;;;;;3.93;2.60;;;10.80;99.90;;;;;;4971638;28;20449;-51
2022/09/26 05:17:35;;;;;;;2.13;1.50;;;10.90;99.90;;;;;;4971932;28;20495;-52
2022/09/26 05:20:02;;;;;;;1.43;1.13;;;10.80;99.90;;;;;;4971449;28;20481;-51
2022/09/26 05:22:30;;;;;;;2.23;1.57;;;10.70;99.90;;;;;;4971785;28;20453;-51
2022/09/26 05:27:43;;;;;;;1.93;1.57;;;10.80;99.90;;;;;;4971253;28;20541;-51
2022/09/26 05:30:11;;;;;;;1.17;0.87;;;10.80;99.90;;;;;;4970895;28;20451;-51
2022/09/26 05:32:39;;;;;;;1.50;0.70;;;10.70;99.90;;;;;;4971702;28;20455;-51
2022/09/26 05:35:07;;;;;;;1.23;0.70;;;10.80;99.90;;;;;;4971310;28;20449;-52
2022/09/26 05:37:34;;;;;;;1.43;1.10;;;10.80;99.90;;;;;;4971176;28;21001;-51
2022/09/26 05:42:47;;;;;;;2.90;1.30;;;10.70;99.90;;;;;;4971140;28;20943;-51
2022/09/26 05:45:15;;;;;;;2.00;1.40;;;10.70;99.90;;;;;;4971325;28;20553;-52
2022/09/26 05:47:42;;;;;;;2.27;1.53;;;10.80;99.90;;;;;;4971254;28;20481;-51
2022/09/26 05:50:09;;;;;;;1.90;1.47;;;10.80;99.90;;;;;;4971474;28;20536;-51
2022/09/26 05:52:36;;;;;;;2.67;1.53;;;10.80;99.90;;;;;;4971254;28;20450;-52
2022/09/26 05:55:04;;;;;;;2.40;1.23;;;10.80;99.90;;;;;;4970683;28;20887;-51
2022/09/26 05:57:31;;;;;;;1.70;1.40;;;10.80;99.90;;;;;;4971144;28;20575;-51
2022/09/26 06:00:00;;;;;;;2.60;1.80;;;10.80;99.90;;;;;;4970589;28;20571;-51
2022/09/26 06:02:28;;;;;;;2.27;1.70;;;10.80;99.90;;;;;;4971017;28;20454;-51
2022/09/26 06:04:55;;;;;;;3.07;2.83;;;10.80;99.90;;;;;;4970848;28;20951;-51
2022/09/26 06:07:22;;;;;;;2.33;1.60;;;10.90;99.90;;;;;;4970880;28;20473;-51
2022/09/26 06:09:49;;;;;;;2.80;1.53;;;10.90;99.90;;;;;;4971037;28;20525;-52
2022/09/26 06:12:19;;;;;;;9.47;6.17;;;11.00;99.90;;;;;;4970842;28;20488;-51
2022/09/26 06:14:46;;;;;;;9.40;5.67;;;10.90;99.90;;;;;;4970599;28;20457;-52
2022/09/26 06:17:15;;;;;;;5.43;4.17;;;10.80;99.90;;;;;;4971089;28;20456;-51
2022/09/26 06:19:41;;;;;;;3.10;2.63;;;10.80;99.90;;;;;;4970734;28;20481;-51
2022/09/26 06:22:08;;;;;;;3.20;2.10;;;10.80;99.90;;;;;;4970573;28;20481;-51
2022/09/26 06:24:35;;;;;;;2.70;1.50;;;10.80;99.90;;;;;;4970266;28;20488;-51
2022/09/26 06:27:02;;;;;;;4.30;1.93;;;10.90;99.90;;;;;;4970613;28;20484;-51
2022/09/26 06:29:29;;;;;;;3.73;1.93;;;11.00;99.90;;;;;;4970574;28;20478;-51
2022/09/26 06:31:56;;;;;;;3.90;1.90;;;11.00;99.90;;;;;;4970464;28;20935;-51
2022/09/26 06:34:24;;;;;;;2.63;1.70;;;11.00;99.90;;;;;;4970441;28;20507;-52
2022/09/26 06:36:51;;;;;;;2.43;2.00;;;11.00;99.90;;;;;;4970795;28;20443;-51
2022/09/26 06:39:18;;;;;;;3.33;2.20;;;11.00;99.90;;;;;;4970401;28;20926;-51
2022/09/26 06:41:45;;;;;;;3.60;2.60;;;11.10;99.90;;;;;;4969305;28;20547;-51
2022/09/26 06:44:12;;;;;;;2.60;2.10;;;11.10;99.90;;;;;;4970307;28;20528;-51
2022/09/26 06:46:39;;;;;;;2.97;1.93;;;11.10;99.90;;;;;;4970283;28;20486;-51
2022/09/26 06:49:06;;;;;;;2.47;2.27;;;11.20;99.90;;;;;;4970210;28;20473;-51
2022/09/26 06:51:37;;;;;;;2.70;2.40;;;11.20;99.90;;;;;;4970446;28;20451;-50
2022/09/26 06:54:04;;;;;;;2.10;1.90;;;11.20;99.90;;;;;;4970535;28;20490;-51
2022/09/26 06:56:31;;;;;;;2.83;2.00;;;11.20;99.90;;;;;;4970321;28;20479;-51
2022/09/26 06:58:58;;;;;;;2.47;1.93;;;11.20;99.90;;;;;;4969774;28;20498;-51
2022/09/26 07:01:25;;;;;;;3.07;2.10;;;11.20;99.90;;;;;;4970256;28;20495;-53
2022/09/26 07:03:51;;;;;;;2.80;1.80;;;11.30;99.90;;;;;;4969980;28;20518;-51
2022/09/26 07:06:18;;;;;;;2.40;1.97;;;11.20;99.90;;;;;;4970110;28;20875;-51
2022/09/26 07:08:47;;;;;;;2.23;2.00;;;11.20;99.90;;;;;;4970052;28;20512;-51
2022/09/26 07:11:14;;;;;;;3.10;1.80;;;11.20;99.90;;;;;;4969820;28;20534;-51
2022/09/26 07:13:41;;;;;;;2.07;1.37;;;11.20;99.90;;;;;;4969717;28;20532;-51
2022/09/26 07:16:08;;;;;;;2.57;1.50;;;11.20;99.90;;;;;;4969648;28;20817;-51
2022/09/26 07:18:36;;;;;;;2.33;1.70;;;11.30;99.90;;;;;;4969754;28;20550;-51
2022/09/26 07:21:04;;;;;;;2.03;1.70;;;11.30;99.90;;;;;;4969355;28;20482;-51
2022/09/26 07:23:31;;;;;;;1.87;1.60;;;11.40;99.90;;;;;;4969576;28;20540;-51
2022/09/26 07:26:01;;;;;;;2.07;1.80;;;11.40;99.90;;;;;;4969254;28;20453;-51
2022/09/26 07:28:30;;;;;;;2.57;2.07;;;11.40;99.90;;;;;;4969559;28;21033;-51
2022/09/26 07:30:58;;;;;;;1.70;1.43;;;11.30;99.90;;;;;;4969626;28;20941;-51
2022/09/26 07:33:25;;;;;;;1.80;1.60;;;11.40;99.90;;;;;;4969367;28;20983;-51
2022/09/26 07:35:52;;;;;;;1.77;1.47;;;11.20;99.90;;;;;;4969562;28;20542;-51
2022/09/26 07:38:19;;;;;;;4.50;1.43;;;11.20;99.90;;;;;;4969203;28;21008;-51
2022/09/26 07:40:48;;;;;;;2.93;2.50;;;11.20;99.90;;;;;;4969641;28;20524;-51
2022/09/26 07:43:18;;;;;;;2.30;1.67;;;11.30;99.90;;;;;;4969138;28;20515;-51
2022/09/26 07:51:13;;;;;;;3.00;1.33;;;11.50;99.90;;;;;;4969396;28;20792;-51
2022/09/26 07:53:40;;;;;;;1.20;0.93;;;11.50;99.90;;;;;;4969033;28;20640;-52
2022/09/26 07:56:09;;;;;;;2.70;0.83;;;11.50;99.90;;;;;;4969280;28;20477;-51
2022/09/26 07:58:39;;;;;;;2.53;1.00;;;11.60;99.90;;;;;;4968345;28;21121;-51
2022/09/26 08:01:08;;;;;;;1.93;0.97;;;11.60;99.90;;;;;;4969625;28;20487;-50
2022/09/26 08:03:35;;;;;;;1.63;1.20;;;11.70;99.90;;;;;;4969126;28;20461;-51
2022/09/26 08:06:03;;;;;;;1.83;1.43;;;11.80;99.90;;;;;;4969252;28;20942;-51
2022/09/26 08:08:30;;;;;;;1.77;1.13;;;11.50;99.90;;;;;;4968870;28;20567;-51
2022/09/26 08:10:58;;;;;;;2.13;1.10;;;11.50;99.90;;;;;;4969302;28;20445;-52
2022/09/26 08:13:26;;;;;;;2.10;1.60;;;11.60;99.90;;;;;;4968991;28;21015;-51
2022/09/26 08:15:54;;;;;;;2.33;1.30;;;11.60;99.90;;;;;;4968985;28;20530;-51
2022/09/26 08:18:21;;;;;;;1.20;0.90;;;11.60;99.90;;;;;;4969125;28;21047;-51
2022/09/26 08:20:48;;;;;;;1.37;0.90;;;11.60;99.90;;;;;;4968904;28;20483;-51
2022/09/26 08:23:16;;;;;;;1.73;0.87;;;11.50;99.90;;;;;;4968972;28;20606;-50
2022/09/26 08:25:44;;;;;;;1.03;0.70;;;11.50;99.90;;;;;;4969050;28;20931;-50
2022/09/26 08:28:12;;;;;;;2.23;0.80;;;11.40;99.90;;;;;;4968904;28;20552;-51
2022/09/26 08:30:39;;;;;;;1.30;0.80;;;11.30;99.90;;;;;;4968872;28;21057;-51
2022/09/26 08:33:11;;;;;;;1.40;0.80;;;11.40;99.90;;;;;;4968567;28;20524;-52
2022/09/26 08:35:38;;;;;;;3.27;0.83;;;11.40;99.90;;;;;;4968976;28;20460;-51
2022/09/26 08:38:06;;;;;;;1.10;0.60;;;11.50;99.90;;;;;;4968647;28;20467;-50
2022/09/26 08:40:43;;;;;;;1.63;0.70;;;11.50;99.90;;;;;;4968845;28;20496;-51
2022/09/26 08:43:20;;;;;;;3.00;0.97;;;11.40;99.90;;;;;;4968391;28;20458;-51
2022/09/26 08:49:13;;;;;;;1.10;0.90;;;11.60;99.90;;;;;;5027748;28;20861;-51
2022/09/26 08:51:45;;;;;;;1.40;1.00;;;11.70;99.90;;;;;;4973451;28;20862;-50
2022/09/26 08:54:16;;;;;;;2.90;1.00;;;11.80;99.90;;;;;;4968927;28;20550;-51
2022/09/26 08:56:47;;;;;;;1.93;1.50;;;11.80;99.90;;;;;;4968559;28;20474;-51
2022/09/26 08:59:24;;;;;;;1.30;1.00;;;11.90;99.90;;;;;;4967815;28;20499;-51
2022/09/26 09:01:56;;;;;;;1.53;1.10;;;11.90;99.90;;;;;;4968590;28;20478;-51
2022/09/26 09:04:32;;;;;;;1.13;0.80;;;11.90;99.90;;;;;;4969404;28;20537;-51
2022/09/26 09:07:11;;;;;;;1.73;1.00;;;12.00;99.90;;;;;;4972047;28;20474;-51
2022/09/26 09:09:38;;;;;;;1.47;1.10;;;12.10;99.90;;;;;;4972086;28;20445;-51
2022/09/26 09:12:11;;;;;;;1.10;0.70;;;12.20;99.90;;;;;;4971742;28;20478;-51
2022/09/26 09:14:53;;;;;;;1.10;0.90;;;12.30;99.90;;;;;;4971435;28;20482;-51
2022/09/26 09:17:30;;;;;;;1.50;1.00;;;12.30;99.90;;;;;;4971581;28;20508;-51
2022/09/26 09:20:07;;;;;;;1.30;0.90;;;12.40;99.90;;;;;;4971628;28;20479;-51
2022/09/26 09:22:52;;;;;;;1.30;1.03;;;12.40;99.90;;;;;;4971394;28;20445;-52
2022/09/26 09:25:22;;;;;;;1.00;0.60;;;12.50;99.90;;;;;;4971402;28;20528;-51
2022/09/26 09:28:07;;;;;;;1.40;1.00;;;12.40;99.90;;;;;;4971145;28;20472;-51
2022/09/26 09:30:40;;;;;;;1.20;0.63;;;12.50;99.90;;;;;;4971823;28;20527;-52
2022/09/26 09:33:12;;;;;;;1.00;0.60;;;12.60;99.90;;;;;;4971310;28;20507;-51
2022/09/26 09:35:46;;;;;;;1.10;0.60;;;12.70;99.90;;;;;;4971231;28;20536;-51
2022/09/26 09:38:16;;;;;;;1.00;0.53;;;12.70;99.90;;;;;;4971371;28;20914;-51
2022/09/26 09:40:50;;;;;;;2.10;1.00;;;12.80;99.90;;;;;;4971805;28;20491;-51
2022/09/26 09:43:25;;;;;;;1.50;1.10;;;12.90;99.90;;;;;;4971154;28;20542;-52
2022/09/26 09:45:55;;;;;;;1.63;1.40;;;12.80;99.90;;;;;;4971624;28;20537;-51
2022/09/26 09:48:26;;;;;;;1.10;0.90;;;12.90;99.90;;;;;;4970828;28;20576;-51
2022/09/26 09:51:09;;;;;;;1.10;0.70;;;12.90;99.90;;;;;;4971282;28;20443;-51
2022/09/26 09:53:52;;;;;;;3.97;2.70;;;13.00;99.90;;;;;;4971025;28;20458;-51
2022/09/26 09:56:28;;;;;;;3.80;2.10;;;13.00;99.90;;;;;;4971166;28;20550;-51
2022/09/26 09:59:07;;;;;;;1.20;0.77;;;13.00;99.90;;;;;;4970494;28;20503;-51
2022/09/26 10:01:40;;;;;;;1.13;0.70;;;13.00;99.90;;;;;;4970563;28;20482;-52
2022/09/26 10:04:19;;;;;;;1.00;0.67;;;13.20;99.90;;;;;;4971009;28;20951;-51
2022/09/26 10:06:48;;;;;;;1.63;0.90;;;13.30;99.90;;;;;;4969202;28;20477;-51
2022/09/26 10:09:20;;;;;;;1.20;0.90;;;13.20;99.90;;;;;;4970859;28;20544;-51
2022/09/26 10:11:48;;;;;;;1.10;0.80;;;13.40;99.90;;;;;;4970296;28;20479;-52
2022/09/26 10:14:21;;;;;;;1.30;0.67;;;13.60;99.90;;;;;;4970453;28;21030;-51
2022/09/26 10:17:19;;;;;;;1.40;1.10;;;13.70;99.90;;;;;;4969354;28;20943;-51
2022/09/26 10:19:47;;;;;;;3.03;0.80;;;13.60;99.90;;;;;;4970841;28;20525;-51
2022/09/26 10:22:23;;;;;;;1.50;0.90;;;13.60;99.90;;;;;;4970889;28;20537;-51
2022/09/26 10:24:51;;;;;;;1.10;0.70;;;13.90;99.90;;;;;;4970193;28;20451;-51
2022/09/26 10:27:25;;;;;;;1.40;0.70;;;13.90;99.90;;;;;;4970581;28;20546;-51
2022/09/26 10:30:00;;;;;;;1.10;0.73;;;14.00;99.90;;;;;;4970417;28;20726;-52
2022/09/26 10:32:27;;;;;;;1.10;0.63;;;13.90;99.90;;;;;;4970066;28;20883;-51
2022/09/26 10:35:17;;;;;;;1.30;0.77;;;14.10;99.90;;;;;;4970070;28;20460;-50
2022/09/26 10:37:48;;;;;;;2.43;1.10;;;14.30;99.90;;;;;;4968904;28;20660;-49
2022/09/26 10:43:24;;;;;;;1.73;1.10;;;14.30;99.90;;;;;;4969616;28;20436;-49
2022/09/26 10:45:54;;;;;;;1.03;0.60;;;14.30;99.90;;;;;;4968614;28;20488;-49
2022/09/26 10:48:26;;;;;;;1.20;0.60;;;14.30;99.90;;;;;;4966913;28;20550;-50
2022/09/26 10:50:59;;;;;;;1.33;0.50;;;14.40;99.90;;;;;;4969715;28;20610;-50
2022/09/26 10:53:34;;;;;;;1.73;0.87;;;14.50;99.90;;;;;;4970004;28;20448;-49
2022/09/26 10:56:07;;;;;;;1.53;1.00;;;14.60;99.90;;;;;;4967565;28;20818;-49
2022/09/26 10:58:40;;;;;;;1.27;0.70;;;14.70;99.90;;;;;;4969361;28;20872;-50
2022/09/26 11:01:07;;;;;;;1.10;0.70;;;14.70;99.90;;;;;;4968388;28;20522;-49
2022/09/26 11:03:40;;;;;;;1.10;0.50;;;14.60;99.90;;;;;;4969723;28;20784;-49
2022/09/26 11:06:22;;;;;;;1.10;0.63;;;14.70;99.90;;;;;;4970082;28;20534;-49
2022/09/26 11:08:55;;;;;;;1.20;0.80;;;14.80;99.90;;;;;;4969641;28;20579;-49
2022/09/26 11:11:22;;;;;;;1.40;0.63;;;14.70;99.90;;;;;;4970191;28;20540;-49
2022/09/26 11:14:02;;;;;;;1.83;0.67;;;14.70;99.90;;;;;;4969939;28;20475;-50
2022/09/26 11:16:29;;;;;;;1.30;1.10;;;14.80;99.90;;;;;;4970068;28;20915;-48
2022/09/26 11:19:06;;;;;;;1.27;0.97;;;14.90;99.90;;;;;;4969314;28;20893;-49
2022/09/26 11:21:40;;;;;;;0.90;0.50;;;14.80;99.90;;;;;;4968281;28;21072;-50
2022/09/26 11:24:14;;;;;;;1.30;0.60;;;14.90;99.90;;;;;;4968427;28;20823;-49
2022/09/26 11:27:03;;;;;;;1.80;0.70;;;15.00;99.90;;;;;;4967956;28;20899;-50
2022/09/26 11:29:40;;;;;;;1.30;0.90;;;15.00;99.90;;;;;;4968993;28;20461;-50
2022/09/26 11:32:13;;;;;;;2.03;1.00;;;14.90;99.90;;;;;;4969222;28;20930;-49
2022/09/26 11:34:40;;;;;;;1.10;0.63;;;14.90;99.90;;;;;;4969151;28;20594;-50
2022/09/26 11:37:29;;;;;;;1.20;0.87;;;15.00;99.90;;;;;;4969543;28;20806;-49
2022/09/26 11:40:16;;;;;;;2.10;0.80;;;15.00;99.90;;;;;;4969801;28;20453;-51
2022/09/26 11:42:55;;;;;;;1.30;0.50;;;15.00;99.90;;;;;;4969045;28;20466;-50
2022/09/26 11:45:29;;;;;;;1.10;0.70;;;15.00;99.90;;;;;;4969584;28;20793;-50
2022/09/26 11:48:14;;;;;;;3.40;0.90;;;15.10;99.90;;;;;;4969154;28;20477;-50
2022/09/26 11:50:53;;;;;;;1.50;0.80;;;15.20;99.90;;;;;;4969207;28;20484;-51
2022/09/26 11:53:43;;;;;;;1.40;0.97;;;15.30;99.90;;;;;;4969184;28;20476;-50
2022/09/26 11:56:38;;;;;;;1.30;0.90;;;15.20;99.90;;;;;;4969726;28;20480;-51
2022/09/26 11:59:28;;;;;;;1.07;0.70;;;15.10;99.90;;;;;;4969038;28;20852;-49
2022/09/26 12:02:11;;;;;;;1.27;0.67;;;15.10;99.90;;;;;;4969141;28;20905;-49
2022/09/26 12:05:03;;;;;;;4.90;1.83;;;15.10;99.90;;;;;;4969268;28;20488;-50
2022/09/26 12:07:39;;;;;;;1.20;0.80;;;15.20;99.90;;;;;;4969227;28;20508;-49
2022/09/26 12:10:19;;;;;;;1.03;0.60;;;15.00;99.90;;;;;;4969596;28;20548;-50
2022/09/26 12:13:00;;;;;;;1.33;0.90;;;15.00;99.90;;;;;;4968697;28;20547;-50
2022/09/26 12:15:31;;;;;;;1.23;0.93;;;15.00;99.90;;;;;;4969180;28;20507;-51
2022/09/26 12:18:12;;;;;;;1.70;0.83;;;14.90;99.90;;;;;;4969057;28;20985;-50
2022/09/26 12:20:47;;;;;;;1.30;0.87;;;14.90;99.90;;;;;;4969131;28;20540;-50
2022/09/26 12:23:23;;;;;;;1.93;0.90;;;15.00;99.90;;;;;;4968891;28;20448;-50
2022/09/26 12:26:01;;;;;;;1.00;0.50;;;14.90;99.90;;;;;;4969455;28;20934;-50
2022/09/26 12:28:44;;;;;;;1.03;0.60;;;14.90;99.90;;;;;;4969783;28;20473;-50
2022/09/26 12:31:19;;;;;;;1.10;0.70;;;14.90;99.90;;;;;;4968850;28;20985;-50
2022/09/26 12:34:18;;;;;;;2.77;1.10;;;14.90;99.90;;;;;;4968146;28;20455;-50
2022/09/26 12:37:00;;;;;;;1.70;1.10;;;15.00;99.90;;;;;;4967450;28;20476;-52
2022/09/26 12:39:43;;;;;;;2.13;1.07;;;15.10;99.90;;;;;;4968863;28;20560;-50
2022/09/26 12:42:24;;;;;;;1.00;0.70;;;15.30;99.90;;;;;;4970619;28;21028;-50
2022/09/26 12:45:18;;;;;;;1.27;0.80;;;15.30;99.90;;;;;;4970391;28;20464;-50
2022/09/26 12:48:04;;;;;;;1.40;0.60;;;15.30;99.90;;;;;;4970585;28;20508;-50
2022/09/26 12:50:40;;;;;;;1.13;0.80;;;15.30;99.90;;;;;;4972025;28;20484;-50
2022/09/26 12:53:28;;;;;;;1.40;0.90;;;15.30;99.90;;;;;;4971666;28;20503;-50
2022/09/26 12:56:06;;;;;;;2.13;1.20;;;15.30;99.90;;;;;;4972419;28;20442;-50
2022/09/26 12:58:57;;;;;;;1.63;0.77;;;15.40;99.90;;;;;;4971624;28;20559;-50
2022/09/26 13:01:46;;;;;;;1.47;1.00;;;15.40;99.90;;;;;;4972180;28;20572;-50
2022/09/26 13:04:51;;;;;;;1.30;0.80;;;15.50;99.90;;;;;;4971515;28;20448;-50
2022/09/26 13:07:27;;;;;;;2.40;1.13;;;15.50;99.90;;;;;;4972158;28;20531;-49
2022/09/26 13:10:16;;;;;;;1.60;0.70;;;15.60;99.90;;;;;;4972002;28;20448;-49
2022/09/26 13:13:01;;;;;;;1.30;0.73;;;15.50;99.90;;;;;;4974193;28;20484;-50
2022/09/26 13:15:34;;;;;;;1.27;0.70;;;15.60;99.90;;;;;;4971239;28;20449;-50
2022/09/26 13:18:06;;;;;;;1.27;0.90;;;15.60;99.90;;;;;;4971357;28;20509;-50
2022/09/26 13:20:40;;;;;;;1.90;0.87;;;15.50;99.90;;;;;;4971635;28;21070;-52
2022/09/26 13:23:13;;;;;;;1.30;0.93;;;15.30;99.90;;;;;;4971540;28;20488;-50
2022/09/26 13:25:47;;;;;;;1.40;1.00;;;15.30;99.90;;;;;;4970173;28;20445;-50
2022/09/26 13:28:17;;;;;;;1.20;0.80;;;15.20;99.90;;;;;;4969785;28;20493;-50
2022/09/26 13:30:48;;;;;;;1.97;1.23;;;15.00;99.90;;;;;;4969961;28;20897;-50
2022/09/26 13:33:21;;;;;;;1.30;1.10;;;14.90;99.90;;;;;;4969798;28;20452;-49
2022/09/26 13:35:50;;;;;;;2.00;1.50;;;14.80;99.90;;;;;;4969867;28;20514;-51